Observations for Trim Market St
| Time | AQI | Temp °C | Hum % | Pres Pa | CO μg/m³ | H₂S μg/m³ | NO μg/m³ | NO₂ μg/m³ | O₃ μg/m³ | SO₂ μg/m³ | PM1 μg/m³ | PM2.5 μg/m³ | PM10 μg/m³ |
|---|---|---|---|---|---|---|---|---|---|---|---|---|---|
| Wednesday 19 August 2026 | |||||||||||||
| 04:04 | 2 | 14.9 | 85 | 2,147,483,647 | 0.24 | 0 | 2.38 | 2.81 | 42.16 | 0 | 0 | 0.96 | 4.3 |
| 04:03 | 2 | 14.9 | 85 | 2,147,483,647 | 0.25 | 0 | 2.38 | 4.06 | 50.3 | 0 | 0.71 | 1.89 | 5.38 |
| 04:01 | 2 | 15 | 85 | 2,147,483,647 | 0.26 | 0 | 2.4 | 4.4 | 37.4 | 0 | 0.71 | 1.88 | 4.84 |
| 03:58 | 2 | 15 | 85 | 2,147,483,647 | 0.26 | 0 | 2.42 | 4.13 | 38.85 | 0 | 0.71 | 1.87 | 5.39 |
| 03:56 | 2 | 15.1 | 85 | 2,147,483,647 | 0.26 | 0 | 2.39 | 5.2 | 44.81 | 0 | 1.43 | 1.86 | 4.86 |
| 03:55 | 2 | 15.1 | 85 | 2,147,483,647 | 0.26 | 0 | 2.39 | 3.72 | 41.63 | 0 | 0.71 | 1.86 | 4.86 |
| 03:51 | 2 | 15.1 | 86 | 2,147,483,647 | 0.28 | 0 | 2.39 | 5.59 | 44.16 | 0 | 1.43 | 1.85 | 4.86 |
| 03:43 | 2 | 15.2 | 86 | 2,147,483,647 | 0.3 | 0 | 2.37 | 6.47 | 43.8 | 0 | 1.43 | 1.85 | 4.87 |
| 03:42 | 2 | 15.1 | 86 | 2,147,483,647 | 0.31 | 0 | 2.39 | 6.16 | 39.54 | 0 | 0.71 | 1.85 | 4.87 |
| 03:41 | 2 | 15.2 | 86 | 2,147,483,647 | 0.3 | 0 | 2.38 | 5.36 | 37.94 | 0 | 0.71 | 1.85 | 5.4 |
| 03:40 | 2 | 15.2 | 86 | 2,147,483,647 | 0.29 | 0 | 2.37 | 5.36 | 40.6 | 0 | 0.71 | 1.85 | 4.87 |
| 03:39 | 2 | 15.2 | 86 | 2,147,483,647 | 0.3 | 0 | 2.36 | 6.23 | 43.89 | 0 | 0.71 | 1.85 | 4.87 |
| 03:38 | 2 | 15.2 | 86 | 2,147,483,647 | 0.29 | 0 | 2.37 | 4.96 | 39.67 | 0 | 1.43 | 2.3 | 5.4 |
| 03:37 | 2 | 15.2 | 86 | 2,147,483,647 | 0.3 | 0 | 2.36 | 5.97 | 40.29 | 0 | 1.43 | 2.31 | 5.93 |
| 03:36 | 2 | 15.2 | 86 | 2,147,483,647 | 0.29 | 0 | 2.37 | 5.59 | 39.56 | 0 | 2.14 | 2.3 | 5.94 |
| 03:35 | 2 | 15.2 | 86 | 2,147,483,647 | 0.3 | 0 | 2.39 | 5.83 | 45.52 | 0 | 1.43 | 1.57 | 4.34 |
| 03:34 | 2 | 15.2 | 86 | 2,147,483,647 | 0.3 | 0 | 2.41 | 5.93 | 45.83 | 0 | 0.71 | 1.38 | 4.34 |
| 03:33 | 2 | 15.2 | 86 | 2,147,483,647 | 0.3 | 0 | 2.42 | 5.74 | 41.44 | 0 | 1.43 | 1.84 | 4.87 |
| 03:32 | 2 | 15.2 | 86 | 2,147,483,647 | 0.29 | 0 | 2.42 | 6.01 | 46.55 | 0 | 1.43 | 1.84 | 4.87 |
| 03:31 | 2 | 15.2 | 86 | 2,147,483,647 | 0.3 | 0 | 2.42 | 5.93 | 43.39 | 0 | 1.43 | 1.84 | 4.87 |